createdAt,value
2018-09-05T00:02:24.054Z,89.83
2018-09-05T00:04:52.505Z,98.60
2018-09-05T00:07:20.961Z,101.47
2018-09-05T00:09:49.399Z,103.90
2018-09-05T00:12:17.872Z,95.70
2018-09-05T00:14:46.316Z,96.33
2018-09-05T00:17:14.766Z,109.57
2018-09-05T00:19:43.271Z,107.90
2018-09-05T00:22:11.749Z,98.33
2018-09-05T00:24:40.170Z,97.53
2018-09-05T00:27:08.659Z,102.67
2018-09-05T00:29:37.142Z,104.17
2018-09-05T00:32:05.984Z,102.33
2018-09-05T00:34:34.524Z,79.63
2018-09-05T00:37:03.118Z,110.70
2018-09-05T00:39:31.700Z,112.20
2018-09-05T00:42:00.149Z,112.13
2018-09-05T00:44:28.803Z,107.47
2018-09-05T00:46:57.249Z,115.03
2018-09-05T00:49:25.673Z,96.47
2018-09-05T00:51:54.329Z,103.03
2018-09-05T00:54:22.777Z,112.67
2018-09-05T00:56:51.243Z,112.47
2018-09-05T00:59:19.731Z,98.23
2018-09-05T01:01:48.237Z,122.60
2018-09-05T01:04:16.686Z,135.70
2018-09-05T01:06:45.143Z,155.73
2018-09-05T01:09:13.576Z,138.67
2018-09-05T01:11:48.486Z,154.43
2018-09-05T01:14:16.899Z,158.53
2018-09-05T01:16:45.597Z,170.33
2018-09-05T01:19:14.104Z,112.83
2018-09-05T01:21:42.590Z,155.70
2018-09-05T01:24:11.051Z,132.53
2018-09-05T01:26:39.545Z,298.73
2018-09-05T01:29:08.078Z,218.60
2018-09-05T01:31:36.609Z,770.27
2018-09-05T01:34:05.171Z,253.37
2018-09-05T01:36:33.638Z,195.17
2018-09-05T01:39:02.077Z,217.07
2018-09-05T01:41:30.522Z,368.37
2018-09-05T01:43:59.034Z,875.70
2018-09-05T01:46:27.613Z,363.97
2018-09-05T01:48:56.125Z,326.60
2018-09-05T01:51:24.554Z,338.63
2018-09-05T01:53:52.976Z,456.87
2018-09-05T01:56:21.402Z,665.30
2018-09-05T01:58:49.866Z,264.27
2018-09-05T02:01:18.407Z,484.17
2018-09-05T02:03:46.976Z,547.70
2018-09-05T02:06:15.573Z,704.20
2018-09-05T02:08:44.109Z,818.67
2018-09-05T02:11:12.693Z,792.53
2018-09-05T02:13:41.230Z,673.17
2018-09-05T02:16:09.677Z,1147.10
2018-09-05T02:18:38.168Z,582.87
2018-09-05T02:21:06.610Z,449.40
2018-09-05T02:23:35.102Z,1093.17
2018-09-05T02:26:03.560Z,684.20
2018-09-05T02:28:32.086Z,257.07
2018-09-05T02:31:00.648Z,583.07
2018-09-05T02:33:29.326Z,332.30
2018-09-05T02:35:57.884Z,277.37
2018-09-05T02:38:26.342Z,549.70
2018-09-05T02:40:54.867Z,534.77
2018-09-05T02:43:28.591Z,494.87
2018-09-05T02:45:57.064Z,531.93
2018-09-05T02:48:25.595Z,548.87
2018-09-05T02:50:54.083Z,690.30
2018-09-05T02:53:22.546Z,467.77
2018-09-05T02:55:56.412Z,865.87
2018-09-05T02:58:24.949Z,904.80
2018-09-05T03:00:53.401Z,521.30
2018-09-05T03:03:21.865Z,270.63
2018-09-05T03:05:50.705Z,751.73
2018-09-05T03:08:19.293Z,803.40
2018-09-05T03:10:47.734Z,601.90
2018-09-05T03:13:16.222Z,537.40
2018-09-05T03:15:44.674Z,705.23
2018-09-05T03:18:13.233Z,624.13
2018-09-05T03:20:41.925Z,665.67
2018-09-05T03:23:10.679Z,575.33
2018-09-05T03:25:39.371Z,233.80
2018-09-05T03:28:08.573Z,336.73
2018-09-05T03:30:37.078Z,330.07
2018-09-05T03:33:05.705Z,404.83
2018-09-05T03:35:34.133Z,122.77
2018-09-05T03:38:02.703Z,293.63
2018-09-05T03:40:31.163Z,317.03
2018-09-05T03:42:59.910Z,167.67
2018-09-05T03:45:28.374Z,124.50
2018-09-05T03:47:56.842Z,253.70
2018-09-05T03:50:25.312Z,231.07
2018-09-05T03:52:53.789Z,85.27
2018-09-05T03:55:22.252Z,89.33
2018-09-05T03:57:50.887Z,112.30
2018-09-05T04:00:19.451Z,105.57
2018-09-05T04:02:48.046Z,101.20
2018-09-05T04:05:16.583Z,79.20
2018-09-05T04:07:45.117Z,81.33
2018-09-05T04:10:13.789Z,74.63
2018-09-05T04:12:42.809Z,66.70
2018-09-05T04:15:11.915Z,71.83
2018-09-05T04:17:40.420Z,61.40
2018-09-05T04:20:10.683Z,67.57
2018-09-05T04:22:39.279Z,70.43
2018-09-05T04:25:07.855Z,87.50
2018-09-05T04:27:36.317Z,75.13
2018-09-05T04:30:04.928Z,61.33
2018-09-05T04:32:33.375Z,61.70
2018-09-05T04:35:01.857Z,68.10
2018-09-05T04:37:30.297Z,55.77
2018-09-05T04:39:58.889Z,57.40
2018-09-05T04:42:27.421Z,61.23
2018-09-05T04:44:55.894Z,59.80
2018-09-05T04:47:24.325Z,61.23
2018-09-05T04:49:52.789Z,69.57
2018-09-05T04:52:21.437Z,59.53
2018-09-05T04:54:50.015Z,66.73
2018-09-05T04:57:18.509Z,79.80
2018-09-05T04:59:47.037Z,104.53
2018-09-05T05:02:15.630Z,89.03
2018-09-05T05:04:44.091Z,74.67
2018-09-05T05:07:12.543Z,86.50
2018-09-05T05:09:40.976Z,78.53
2018-09-05T05:12:09.443Z,88.33
2018-09-05T05:14:37.901Z,178.63
2018-09-05T05:17:06.480Z,159.30
2018-09-05T05:19:34.957Z,137.53
2018-09-05T05:22:03.479Z,230.33
2018-09-05T05:24:31.937Z,150.73
2018-09-05T05:27:00.591Z,110.77
2018-09-05T05:29:29.198Z,314.63
2018-09-05T05:31:57.711Z,132.23
2018-09-05T05:34:26.327Z,220.20
2018-09-05T05:36:54.928Z,104.27
2018-09-05T05:39:23.487Z,133.37
2018-09-05T05:41:52.069Z,145.93
2018-09-05T05:44:20.613Z,322.53
2018-09-05T05:46:49.131Z,191.70
2018-09-05T05:49:17.658Z,167.13
2018-09-05T05:51:46.143Z,137.97
2018-09-05T05:54:14.575Z,109.33
2018-09-05T05:56:43.132Z,223.07
2018-09-05T05:59:11.579Z,279.77
2018-09-05T06:01:40.064Z,711.90
2018-09-05T06:04:08.567Z,359.30
2018-09-05T06:06:37.045Z,523.53
2018-09-05T06:09:08.261Z,671.90
2018-09-05T06:11:36.953Z,169.97
2018-09-05T06:14:05.786Z,383.17
2018-09-05T06:16:34.251Z,446.30
2018-09-05T06:19:02.800Z,371.93
2018-09-05T06:21:31.296Z,359.83
2018-09-05T06:23:59.772Z,364.47
2018-09-05T06:26:28.317Z,288.13
2018-09-05T06:28:56.991Z,389.57
2018-09-05T06:31:25.611Z,366.63
2018-09-05T06:33:54.043Z,329.70
2018-09-05T06:36:22.513Z,445.77
2018-09-05T06:38:51.014Z,325.63
2018-09-05T06:41:19.468Z,937.50
2018-09-05T06:43:47.927Z,609.47
2018-09-05T06:46:16.401Z,870.57
2018-09-05T06:49:15.149Z,487.10
2018-09-05T06:51:43.661Z,305.20
2018-09-05T06:54:12.109Z,536.77
2018-09-05T06:56:40.598Z,653.17
2018-09-05T06:59:09.085Z,483.47
2018-09-05T07:01:37.655Z,550.20
2018-09-05T07:04:06.171Z,568.93
2018-09-05T07:06:34.751Z,424.60
2018-09-05T07:09:03.724Z,342.47
2018-09-05T07:11:32.325Z,367.03
2018-09-05T07:14:00.853Z,345.50
2018-09-05T07:16:29.360Z,266.90
2018-09-05T07:18:57.992Z,260.47
2018-09-05T07:21:26.692Z,231.07
2018-09-05T07:23:55.155Z,208.33
2018-09-05T07:26:23.608Z,203.93
2018-09-05T07:28:52.142Z,208.73
2018-09-05T07:31:20.612Z,198.57
2018-09-05T07:33:49.172Z,156.77
2018-09-05T07:36:17.655Z,152.37
2018-09-05T07:38:46.122Z,147.67
2018-09-05T07:41:14.583Z,142.40
2018-09-05T07:43:43.147Z,143.37
2018-09-05T07:46:11.555Z,135.30
2018-09-05T07:48:40.044Z,121.37
2018-09-05T07:51:08.604Z,113.67
2018-09-05T07:53:37.140Z,116.80
2018-09-05T07:56:05.777Z,110.03
2018-09-05T07:58:35.410Z,110.13
2018-09-05T08:01:03.851Z,101.50
2018-09-05T08:03:32.294Z,100.63
2018-09-05T08:06:00.751Z,95.63
2018-09-05T08:08:29.303Z,95.37
2018-09-05T08:11:04.497Z,98.20
2018-09-05T08:13:33.622Z,98.03
2018-09-05T08:16:02.079Z,93.20
2018-09-05T08:18:30.749Z,89.33
2018-09-05T08:20:59.428Z,92.13
2018-09-05T08:23:28.040Z,91.57
2018-09-05T08:25:56.490Z,91.60
2018-09-05T08:28:24.951Z,88.70
2018-09-05T08:30:53.587Z,90.00
2018-09-05T08:33:22.124Z,92.10
2018-09-05T08:35:50.979Z,90.63
2018-09-05T08:38:19.360Z,90.60
2018-09-05T08:40:47.959Z,85.30
2018-09-05T08:43:16.453Z,84.97
2018-09-05T08:45:45.331Z,85.53
2018-09-05T08:48:13.621Z,80.57
2018-09-05T08:50:42.041Z,78.57
2018-09-05T08:53:10.517Z,73.67
2018-09-05T08:55:38.949Z,74.90
2018-09-05T08:58:07.403Z,73.63
2018-09-05T09:00:35.858Z,71.63
2018-09-05T09:03:04.421Z,71.90
2018-09-05T09:05:33.137Z,71.93
2018-09-05T09:08:01.777Z,73.23
2018-09-05T09:10:30.531Z,64.43
2018-09-05T09:12:59.028Z,68.37
2018-09-05T09:15:27.712Z,66.97
2018-09-05T09:17:56.301Z,70.83
2018-09-05T09:20:24.817Z,62.10
2018-09-05T09:22:54.373Z,62.53
2018-09-05T09:25:22.847Z,66.13
2018-09-05T09:27:51.442Z,63.13
2018-09-05T09:30:19.919Z,65.63
2018-09-05T09:32:48.401Z,64.50
2018-09-05T09:35:16.948Z,65.27
2018-09-05T09:37:45.371Z,62.67
2018-09-05T09:40:13.943Z,62.40
2018-09-05T09:42:42.466Z,66.33
2018-09-05T09:45:10.927Z,65.83
2018-09-05T09:47:39.443Z,70.40
2018-09-05T09:50:07.993Z,62.37
2018-09-05T09:52:38.609Z,62.60
2018-09-05T09:55:08.996Z,62.10
2018-09-05T09:57:38.033Z,58.87
2018-09-05T10:00:07.261Z,61.40
2018-09-05T10:02:41.093Z,61.03
2018-09-05T10:05:14.779Z,60.93
2018-09-05T10:07:48.576Z,63.33
2018-09-05T10:10:22.836Z,60.13
2018-09-05T10:12:56.026Z,62.10
2018-09-05T10:16:32.637Z,63.53
2018-09-05T10:19:05.293Z,65.80
2018-09-05T10:21:33.847Z,60.53
2018-09-05T10:24:02.294Z,63.77
2018-09-05T10:26:30.805Z,61.10
2018-09-05T10:28:59.259Z,60.27
2018-09-05T10:31:27.715Z,60.93
2018-09-05T10:33:56.263Z,60.50
2018-09-05T10:36:24.796Z,61.20
2018-09-05T10:38:53.342Z,60.77
2018-09-05T10:41:21.860Z,60.10
2018-09-05T10:43:50.442Z,67.77
2018-09-05T10:46:19.063Z,59.53
2018-09-05T10:48:47.542Z,60.20
2018-09-05T10:51:16.101Z,61.63
2018-09-05T10:53:44.802Z,60.63
2018-09-05T10:56:13.293Z,60.17
2018-09-05T10:58:41.876Z,58.77
2018-09-05T11:01:10.457Z,61.17
2018-09-05T11:03:39.028Z,59.60
2018-09-05T11:06:07.507Z,61.87
2018-09-05T11:08:36.054Z,61.83
2018-09-05T11:11:04.734Z,60.17
2018-09-05T11:13:33.198Z,62.93
2018-09-05T11:16:01.710Z,60.90
2018-09-05T11:18:30.189Z,61.93
2018-09-05T11:20:58.677Z,63.43
2018-09-05T11:23:27.166Z,64.03
2018-09-05T11:25:55.659Z,69.13
2018-09-05T11:28:24.098Z,76.67
2018-09-05T11:30:52.624Z,68.47
2018-09-05T11:33:21.106Z,69.10
2018-09-05T11:35:49.562Z,67.30
2018-09-05T11:38:18.170Z,70.67
2018-09-05T11:40:46.675Z,69.27
2018-09-05T11:43:15.293Z,67.73
2018-09-05T11:45:43.768Z,76.43
2018-09-05T11:48:12.281Z,70.23
2018-09-05T11:50:40.766Z,69.93
2018-09-05T11:53:09.237Z,70.47
2018-09-05T11:55:38.872Z,73.17
2018-09-05T11:58:07.338Z,70.00
2018-09-05T12:00:35.817Z,67.20
2018-09-05T12:03:04.325Z,65.70
2018-09-05T12:05:32.792Z,65.07
2018-09-05T12:08:01.383Z,65.17
2018-09-05T12:10:29.981Z,65.57
2018-09-05T12:12:58.476Z,65.80
2018-09-05T12:15:27.225Z,64.13
2018-09-05T12:17:55.683Z,68.77
2018-09-05T12:20:24.157Z,65.90
2018-09-05T12:22:52.681Z,63.03
2018-09-05T12:25:21.323Z,63.63
2018-09-05T12:27:49.782Z,60.73
2018-09-05T12:30:18.582Z,64.50
2018-09-05T12:32:47.153Z,65.23
2018-09-05T12:35:15.688Z,67.00
2018-09-05T12:37:44.342Z,62.87
2018-09-05T12:40:12.815Z,62.43
2018-09-05T12:42:41.284Z,65.77
2018-09-05T12:45:10.031Z,66.17
2018-09-05T12:47:38.536Z,66.80
2018-09-05T12:50:07.116Z,64.30
2018-09-05T12:52:35.615Z,70.60
2018-09-05T12:55:04.307Z,64.23
2018-09-05T12:57:32.835Z,64.17
2018-09-05T13:00:01.687Z,65.80
2018-09-05T13:02:30.144Z,63.97
2018-09-05T13:04:58.657Z,65.83
2018-09-05T13:07:27.200Z,65.70
2018-09-05T13:09:55.685Z,66.23
2018-09-05T13:12:24.182Z,70.17
2018-09-05T13:14:52.666Z,67.40
2018-09-05T13:17:21.234Z,71.60
2018-09-05T13:19:49.723Z,74.30
2018-09-05T13:22:18.200Z,76.00
2018-09-05T13:24:46.713Z,68.17
2018-09-05T13:27:15.148Z,72.83
2018-09-05T13:29:43.588Z,74.70
2018-09-05T13:32:12.113Z,71.17
2018-09-05T13:34:40.603Z,69.80
2018-09-05T13:37:09.519Z,72.67
2018-09-05T13:39:38.175Z,72.17
2018-09-05T13:42:06.753Z,71.50
2018-09-05T13:44:35.245Z,71.93
2018-09-05T13:47:03.853Z,67.47
2018-09-05T13:49:32.343Z,66.00
2018-09-05T13:52:03.401Z,67.83
2018-09-05T13:54:33.073Z,64.60
2018-09-05T13:57:02.007Z,64.40
2018-09-05T13:59:31.079Z,64.27
2018-09-05T14:01:59.619Z,63.90
2018-09-05T14:04:28.149Z,63.10
2018-09-05T14:06:56.726Z,62.07
2018-09-05T14:09:25.182Z,58.77
2018-09-05T14:11:53.771Z,58.87
2018-09-05T14:14:22.246Z,58.43
2018-09-05T14:16:50.752Z,62.43
2018-09-05T14:19:19.212Z,60.43
2018-09-05T14:21:47.760Z,52.60
2018-09-05T14:24:16.362Z,54.90
2018-09-05T14:26:44.880Z,53.37
2018-09-05T14:29:13.454Z,54.40
2018-09-05T14:31:41.969Z,49.47
2018-09-05T14:34:12.192Z,47.57
2018-09-05T14:36:40.715Z,49.40
2018-09-05T14:39:11.938Z,53.40
2018-09-05T14:41:40.432Z,55.23
2018-09-05T14:44:09.013Z,51.37
2018-09-05T14:46:37.622Z,50.77
2018-09-05T14:49:06.247Z,53.37
2018-09-05T14:51:34.848Z,52.50
2018-09-05T14:54:03.471Z,51.37
2018-09-05T14:56:32.005Z,49.43
2018-09-05T14:59:00.614Z,51.50
2018-09-05T15:01:29.402Z,50.13
2018-09-05T15:03:58.014Z,49.27
2018-09-05T15:06:26.560Z,50.97
2018-09-05T15:08:55.150Z,47.53
2018-09-05T15:11:23.750Z,49.10
2018-09-05T15:13:52.424Z,47.90
2018-09-05T15:16:21.118Z,48.57
2018-09-05T15:18:49.617Z,49.50
2018-09-05T15:21:18.193Z,49.63
2018-09-05T15:23:49.810Z,47.67
2018-09-05T15:26:18.992Z,47.90
2018-09-05T15:28:47.496Z,47.03
2018-09-05T15:31:16.206Z,42.97
2018-09-05T15:33:44.715Z,41.50
2018-09-05T15:36:13.180Z,43.43
2018-09-05T15:38:41.779Z,42.03
2018-09-05T15:41:10.263Z,42.30
2018-09-05T15:43:38.805Z,45.93
2018-09-05T15:46:07.307Z,46.03
2018-09-05T15:48:35.868Z,44.10
2018-09-05T15:51:04.489Z,43.50
2018-09-05T15:53:32.985Z,44.10
2018-09-05T15:56:01.485Z,43.33
2018-09-05T15:58:29.980Z,42.57
2018-09-05T16:00:58.599Z,44.93
2018-09-05T16:03:27.293Z,44.10
2018-09-05T16:05:55.792Z,44.23
2018-09-05T16:08:24.329Z,42.60
2018-09-05T16:10:52.797Z,41.67
2018-09-05T16:13:21.349Z,40.30
2018-09-05T16:15:49.835Z,43.33
2018-09-05T16:18:18.310Z,41.03
2018-09-05T16:20:46.933Z,40.07
2018-09-05T16:23:15.487Z,39.97
2018-09-05T16:25:44.021Z,40.03
2018-09-05T16:28:12.611Z,39.17
2018-09-05T16:30:41.673Z,38.67
2018-09-05T16:33:10.151Z,39.20
2018-09-05T16:35:38.685Z,37.07
2018-09-05T16:38:07.279Z,35.97
2018-09-05T16:40:35.778Z,35.10
2018-09-05T16:43:04.460Z,34.50
2018-09-05T16:45:33.015Z,35.43
2018-09-05T16:48:01.603Z,33.47
2018-09-05T16:50:30.289Z,36.27
2018-09-05T16:52:58.905Z,36.40
2018-09-05T16:55:27.369Z,37.60
2018-09-05T16:57:55.899Z,36.23
2018-09-05T17:00:24.375Z,36.00
2018-09-05T17:02:52.831Z,35.77
2018-09-05T17:05:21.362Z,35.10
2018-09-05T17:07:49.954Z,37.97
2018-09-05T17:10:18.547Z,36.73
2018-09-05T17:12:47.019Z,33.80
2018-09-05T17:15:15.627Z,34.03
2018-09-05T17:17:44.204Z,36.17
2018-09-05T17:20:12.681Z,36.80
2018-09-05T17:22:41.255Z,34.30
2018-09-05T17:25:09.881Z,35.97
2018-09-05T17:27:38.362Z,33.80
2018-09-05T17:30:06.904Z,33.67
2018-09-05T17:32:35.373Z,34.00
2018-09-05T17:35:04.159Z,32.73
2018-09-05T17:37:32.584Z,35.83
2018-09-05T17:40:01.222Z,32.83
2018-09-05T17:42:29.708Z,34.30
2018-09-05T17:44:58.239Z,33.70
2018-09-05T17:47:26.710Z,37.17
2018-09-05T17:49:55.274Z,36.70
2018-09-05T17:52:23.859Z,37.50
2018-09-05T17:54:52.450Z,37.70
2018-09-05T17:57:21.256Z,36.23
2018-09-05T17:59:49.944Z,36.20
2018-09-05T18:02:18.476Z,37.13
2018-09-05T18:04:47.013Z,36.80
2018-09-05T18:07:15.606Z,37.47
2018-09-05T18:09:44.143Z,36.13
2018-09-05T18:12:12.726Z,35.50
2018-09-05T18:14:41.278Z,37.17
2018-09-05T18:17:10.020Z,35.90
2018-09-05T18:19:38.608Z,34.00
2018-09-05T18:22:07.113Z,32.90
2018-09-05T18:24:35.616Z,36.27
2018-09-05T18:27:04.114Z,35.77
2018-09-05T18:29:32.711Z,38.30
2018-09-05T18:32:01.210Z,33.90
2018-09-05T18:34:29.720Z,36.07
2018-09-05T18:36:58.284Z,35.33
2018-09-05T18:39:26.871Z,33.53
2018-09-05T18:41:55.462Z,35.00
2018-09-05T18:44:23.948Z,35.87
2018-09-05T18:46:52.548Z,33.60
2018-09-05T18:49:21.560Z,34.63
2018-09-05T18:51:50.129Z,31.60
2018-09-05T18:54:18.704Z,31.93
2018-09-05T18:56:47.280Z,32.37
2018-09-05T18:59:15.813Z,33.50
2018-09-05T19:01:44.284Z,33.57
2018-09-05T19:04:12.766Z,33.33
2018-09-05T19:06:41.236Z,32.23
2018-09-05T19:09:11.455Z,33.17
2018-09-05T19:11:40.438Z,35.00
2018-09-05T19:14:10.162Z,35.83
2018-09-05T19:16:38.670Z,36.17
2018-09-05T19:19:07.232Z,35.00
2018-09-05T19:21:35.698Z,39.10
2018-09-05T19:24:04.209Z,38.77
2018-09-05T19:26:32.777Z,40.23
2018-09-05T19:29:01.723Z,43.70
2018-09-05T19:31:30.368Z,46.47
2018-09-05T19:33:58.893Z,48.27
2018-09-05T19:36:27.403Z,48.00
2018-09-05T19:38:55.903Z,49.87
2018-09-05T19:41:24.529Z,50.53
2018-09-05T19:43:53.102Z,48.93
2018-09-05T19:46:21.670Z,47.07
2018-09-05T19:48:50.331Z,38.47
2018-09-05T19:51:18.796Z,35.37
2018-09-05T19:53:47.377Z,27.20
2018-09-05T19:56:16.322Z,23.67
2018-09-05T19:58:44.802Z,17.20
2018-09-05T20:01:13.337Z,16.10
2018-09-05T20:03:41.818Z,15.07
2018-09-05T20:06:10.420Z,11.97
2018-09-05T20:08:38.890Z,7.07
2018-09-05T20:11:07.442Z,6.17
2018-09-05T20:13:36.093Z,5.70
2018-09-05T20:16:04.924Z,5.57
2018-09-05T20:18:36.934Z,4.60
2018-09-05T20:21:05.475Z,4.53
2018-09-05T20:23:33.995Z,5.00
2018-09-05T20:26:02.680Z,4.63
2018-09-05T20:28:32.530Z,5.87
2018-09-05T20:31:01.066Z,8.07
2018-09-05T20:33:29.599Z,15.60
2018-09-05T20:35:58.125Z,17.17
2018-09-05T20:38:26.582Z,37.70
2018-09-05T20:40:55.059Z,48.20
2018-09-05T20:43:23.499Z,37.50
2018-09-05T20:45:52.070Z,28.53
2018-09-05T20:48:20.525Z,32.50
2018-09-05T20:50:49.101Z,35.67
2018-09-05T20:53:17.607Z,35.33
2018-09-05T20:55:46.088Z,39.90
2018-09-05T20:58:14.576Z,36.00
2018-09-05T21:00:43.112Z,55.37
2018-09-05T21:03:11.572Z,65.77
2018-09-05T21:05:40.094Z,68.63
2018-09-05T21:08:08.628Z,51.70
2018-09-05T21:10:37.125Z,57.30
2018-09-05T21:13:05.675Z,80.13
2018-09-05T21:15:34.256Z,100.10
2018-09-05T21:18:02.762Z,104.80
2018-09-05T21:20:31.284Z,131.33
2018-09-05T21:22:59.745Z,96.90
2018-09-05T21:25:28.306Z,145.80
2018-09-05T21:27:56.870Z,198.60
2018-09-05T21:30:25.328Z,103.73
2018-09-05T21:32:53.798Z,99.13
2018-09-05T21:35:22.252Z,136.97
2018-09-05T21:37:50.676Z,110.77
2018-09-05T21:40:19.143Z,55.70
2018-09-05T21:42:47.691Z,105.00
2018-09-05T21:45:16.146Z,84.47
2018-09-05T21:47:44.626Z,84.47
2018-09-05T21:50:13.087Z,128.63
2018-09-05T21:52:41.736Z,162.27
2018-09-05T21:55:10.234Z,164.33
2018-09-05T21:57:38.982Z,144.27
2018-09-05T22:00:08.981Z,122.83
2018-09-05T22:02:37.481Z,127.27
2018-09-05T22:05:06.080Z,149.17
2018-09-05T22:07:34.596Z,115.57
2018-09-05T22:10:03.114Z,115.57
2018-09-05T22:12:31.672Z,73.50
2018-09-05T22:15:00.121Z,86.43
2018-09-05T22:17:28.617Z,115.20
2018-09-05T22:19:57.116Z,115.10
2018-09-05T22:22:25.581Z,199.13
2018-09-05T22:24:54.250Z,73.37
2018-09-05T22:27:22.738Z,138.63
2018-09-05T22:29:51.297Z,105.03
2018-09-05T22:32:19.854Z,140.60
2018-09-05T22:34:48.372Z,138.03
2018-09-05T22:37:16.930Z,98.60
2018-09-05T22:39:45.509Z,111.40
2018-09-05T22:42:14.316Z,77.37
2018-09-05T22:44:55.665Z,113.03
2018-09-05T22:47:37.387Z,133.50
2018-09-05T22:51:51.290Z,136.03
2018-09-05T22:55:07.425Z,145.90
2018-09-05T22:57:54.067Z,158.23
2018-09-05T23:01:39.257Z,134.87
2018-09-05T23:04:19.819Z,136.43
2018-09-05T23:07:00.759Z,88.00
2018-09-05T23:10:43.697Z,28.37
2018-09-05T23:13:23.329Z,39.83
2018-09-05T23:16:03.077Z,53.33
2018-09-05T23:18:43.455Z,23.33
2018-09-05T23:21:18.291Z,45.20
2018-09-05T23:24:05.896Z,31.67
2018-09-05T23:26:34.431Z,46.30
2018-09-05T23:29:02.863Z,62.33
2018-09-05T23:31:31.578Z,86.80
2018-09-05T23:34:00.020Z,47.17
2018-09-05T23:36:28.519Z,50.27
2018-09-05T23:38:57.092Z,57.93
2018-09-05T23:41:25.562Z,85.20
2018-09-05T23:43:54.158Z,61.73
2018-09-05T23:46:22.749Z,51.00
2018-09-05T23:48:51.341Z,55.53
2018-09-05T23:51:19.778Z,55.57
2018-09-05T23:53:48.320Z,56.40
2018-09-05T23:56:16.909Z,48.47
2018-09-05T23:58:45.463Z,84.47
